createdAt,value
2018-02-17T09:12:30.801Z,1023.69
2018-02-17T09:13:32.672Z,1023.68
2018-02-17T09:14:34.542Z,1023.69
2018-02-17T09:15:36.386Z,1023.65
2018-02-17T09:16:38.192Z,1023.66
2018-02-17T09:17:39.988Z,1023.65
2018-02-17T09:18:41.846Z,1023.66
2018-02-17T09:19:43.723Z,1023.66
2018-02-17T09:20:45.601Z,1023.70
2018-02-17T09:21:59.797Z,1023.65
2018-02-17T09:23:01.655Z,1023.62
2018-02-17T09:24:03.504Z,1023.60
2018-02-17T09:25:05.369Z,1023.64
2018-02-17T09:26:07.183Z,1023.63
2018-02-17T09:27:08.996Z,1023.61
2018-02-17T09:28:10.857Z,1023.59
2018-02-17T09:29:12.738Z,1023.54
2018-02-17T09:30:14.612Z,1023.58
2018-02-17T09:31:28.753Z,1023.56
2018-02-17T09:32:30.635Z,1023.59
2018-02-17T09:33:32.493Z,1023.55
2018-02-17T09:34:34.374Z,1023.58
2018-02-17T09:35:36.190Z,1023.55
2018-02-17T09:36:38.008Z,1023.59
2018-02-17T09:37:39.889Z,1023.58
2018-02-17T09:38:41.774Z,1023.65
2018-02-17T09:39:43.656Z,1023.62
2018-02-17T09:40:57.801Z,1023.64
2018-02-17T09:41:59.706Z,1023.68
2018-02-17T09:43:01.586Z,1023.65
2018-02-17T09:44:03.468Z,1023.67
2018-02-17T09:45:05.279Z,1023.69
2018-02-17T09:46:07.079Z,1023.69
2018-02-17T09:47:08.974Z,1023.69
2018-02-17T09:48:10.990Z,1023.71
2018-02-17T09:49:12.979Z,1023.72
2018-02-17T09:50:27.193Z,1023.71
2018-02-17T09:51:29.059Z,1023.70
2018-02-17T09:52:30.936Z,1023.75
2018-02-17T09:53:32.802Z,1023.69
2018-02-17T09:54:34.603Z,1023.71
2018-02-17T09:55:36.416Z,1023.73
2018-02-17T09:56:38.280Z,1023.75
2018-02-17T09:57:40.147Z,1023.68
2018-02-17T09:58:42.032Z,1023.73
2018-02-17T09:59:56.227Z,1023.72
2018-02-17T10:00:58.095Z,1023.75
2018-02-17T10:01:59.979Z,1023.75
2018-02-17T10:03:01.860Z,1023.76
2018-02-17T10:04:03.651Z,1023.79
2018-02-17T10:05:05.459Z,1023.78
2018-02-17T10:06:07.340Z,1023.82
2018-02-17T10:07:09.210Z,1023.81
2018-02-17T10:08:11.070Z,1023.84
2018-02-17T10:09:25.217Z,1023.88
2018-02-17T10:10:27.087Z,1023.88
2018-02-17T10:11:28.971Z,1023.89
2018-02-17T10:12:30.830Z,1023.90
2018-02-17T10:13:32.649Z,1023.92
2018-02-17T10:14:34.475Z,1023.93
2018-02-17T10:15:36.336Z,1023.93
2018-02-17T10:16:38.196Z,1023.94
2018-02-17T10:17:40.058Z,1023.93
2018-02-17T10:18:54.191Z,1023.93
2018-02-17T10:19:56.069Z,1023.96
2018-02-17T10:20:57.933Z,1023.94
2018-02-17T10:21:59.798Z,1023.94
2018-02-17T10:23:01.598Z,1023.94
2018-02-17T10:24:03.393Z,1023.96
2018-02-17T10:25:05.263Z,1023.96
2018-02-17T10:26:07.124Z,1023.97
2018-02-17T10:27:08.988Z,1023.98
2018-02-17T10:28:23.202Z,1023.98
2018-02-17T10:29:25.086Z,1024.01
2018-02-17T10:30:26.945Z,1024.00
2018-02-17T10:31:28.807Z,1023.97
2018-02-17T10:32:30.607Z,1023.99
2018-02-17T10:33:32.418Z,1024.03
2018-02-17T10:34:34.215Z,1023.98
2018-02-17T10:35:36.044Z,1024.01
2018-02-17T10:36:37.828Z,1023.99
2018-02-17T10:37:51.975Z,1024.04
2018-02-17T10:38:53.843Z,1024.07
2018-02-17T10:39:55.720Z,1024.04
2018-02-17T10:40:57.588Z,1024.02
2018-02-17T10:41:59.402Z,1024.03
2018-02-17T10:43:01.223Z,1023.99
2018-02-17T10:44:03.105Z,1023.98
2018-02-17T10:45:04.980Z,1023.96
2018-02-17T10:46:06.846Z,1023.98
2018-02-17T10:47:20.982Z,1023.89
2018-02-17T10:48:22.857Z,1023.89
2018-02-17T10:49:24.721Z,1023.93
2018-02-17T10:50:26.579Z,1023.94
2018-02-17T10:51:28.380Z,1023.88
2018-02-17T10:52:30.214Z,1023.88
2018-02-17T10:53:32.036Z,1023.90
2018-02-17T10:54:33.906Z,1023.88
2018-02-17T10:55:35.779Z,1023.84
2018-02-17T10:56:49.927Z,1023.84
2018-02-17T10:57:51.792Z,1023.82
2018-02-17T10:58:53.653Z,1023.82
2018-02-17T10:59:55.511Z,1023.81
2018-02-17T11:00:57.333Z,1023.82
2018-02-17T11:01:59.152Z,1023.82
2018-02-17T11:03:01.011Z,1023.78
2018-02-17T11:04:02.874Z,1023.78
2018-02-17T11:05:04.736Z,1023.77
2018-02-17T11:06:18.899Z,1023.79
2018-02-17T11:07:20.773Z,1023.76
2018-02-17T11:08:22.628Z,1023.76
2018-02-17T11:09:24.491Z,1023.70
2018-02-17T11:10:26.293Z,1023.67
2018-02-17T11:11:28.105Z,1023.63
2018-02-17T11:12:29.958Z,1023.63
2018-02-17T11:13:31.819Z,1023.62
2018-02-17T11:14:33.687Z,1023.61
2018-02-17T11:15:47.841Z,1023.58
2018-02-17T11:16:49.702Z,1023.61
2018-02-17T11:17:51.581Z,1023.58
2018-02-17T11:18:53.457Z,1023.56
2018-02-17T11:19:55.298Z,1023.60
2018-02-17T11:20:57.118Z,1023.56
2018-02-17T11:21:58.999Z,1023.56
2018-02-17T11:23:00.902Z,1023.52
2018-02-17T11:24:02.740Z,1023.54
2018-02-17T11:25:16.889Z,1023.50
2018-02-17T11:26:18.756Z,1023.50
2018-02-17T11:27:20.687Z,1023.53
2018-02-17T11:28:22.499Z,1023.53
2018-02-17T11:29:24.293Z,1023.48
2018-02-17T11:30:26.091Z,1023.47
2018-02-17T11:31:27.955Z,1023.42
2018-02-17T11:32:29.822Z,1023.47
2018-02-17T11:33:31.698Z,1023.39
2018-02-17T11:34:45.834Z,1023.41
2018-02-17T11:35:47.748Z,1023.40
2018-02-17T11:36:49.564Z,1023.38
2018-02-17T11:37:51.472Z,1023.38
2018-02-17T11:38:53.208Z,1023.38
2018-02-17T11:39:55.015Z,1023.34
2018-02-17T11:40:56.896Z,1023.29
2018-02-17T11:41:58.782Z,1023.28
2018-02-17T11:43:00.690Z,1023.27
2018-02-17T11:44:14.775Z,1023.26
2018-02-17T11:45:16.643Z,1023.21
2018-02-17T11:46:18.529Z,1023.24
2018-02-17T11:47:20.387Z,1023.19
2018-02-17T11:48:22.186Z,1023.18
2018-02-17T11:49:23.987Z,1023.16
2018-02-17T11:50:25.866Z,1023.14
2018-02-17T11:51:27.733Z,1023.14
2018-02-17T11:52:29.621Z,1023.10
2018-02-17T11:53:43.769Z,1023.12
2018-02-17T11:54:45.635Z,1023.10
2018-02-17T11:55:47.520Z,1023.09
2018-02-17T11:56:49.404Z,1023.05
2018-02-17T11:57:51.205Z,1023.04
2018-02-17T11:58:53.008Z,1023.04
2018-02-17T11:59:54.890Z,1023.02
2018-02-17T12:00:56.755Z,1022.93
2018-02-17T12:01:58.619Z,1022.83
2018-02-17T12:03:12.822Z,1022.84
2018-02-17T12:04:14.731Z,1022.82
2018-02-17T12:05:16.612Z,1022.85
2018-02-17T12:06:18.464Z,1022.86
2018-02-17T12:07:20.314Z,1022.87
2018-02-17T12:08:22.270Z,1022.89
2018-02-17T12:09:24.152Z,1022.91
2018-02-17T12:10:26.080Z,1022.83
2018-02-17T12:11:27.962Z,1022.87
2018-02-17T12:12:42.131Z,1022.83
2018-02-17T12:13:43.997Z,1022.81
2018-02-17T12:14:45.880Z,1022.81
2018-02-17T12:15:47.793Z,1022.83
2018-02-17T12:16:49.638Z,1022.81
2018-02-17T12:17:51.462Z,1022.82
2018-02-17T12:18:53.341Z,1022.83
2018-02-17T12:19:55.160Z,1022.82
2018-02-17T12:20:56.957Z,1022.81
2018-02-17T12:22:11.101Z,1022.79
2018-02-17T12:23:12.973Z,1022.76
2018-02-17T12:24:14.865Z,1022.79
2018-02-17T12:25:16.766Z,1022.78
2018-02-17T12:26:18.576Z,1022.77
2018-02-17T12:27:20.376Z,1022.73
2018-02-17T12:28:22.235Z,1022.74
2018-02-17T12:29:24.100Z,1022.76
2018-02-17T12:30:25.993Z,1022.73
2018-02-17T12:31:40.121Z,1022.77
2018-02-17T12:32:42.001Z,1022.78
2018-02-17T12:33:43.873Z,1022.78
2018-02-17T12:34:45.751Z,1022.72
2018-02-17T12:35:47.571Z,1022.69
2018-02-17T12:36:49.387Z,1022.68
2018-02-17T12:37:51.309Z,1022.63
2018-02-17T12:38:53.172Z,1022.63
2018-02-17T12:39:55.069Z,1022.60
2018-02-17T12:41:09.226Z,1022.63
2018-02-17T12:42:11.110Z,1022.58
2018-02-17T12:43:12.995Z,1022.59
2018-02-17T12:44:14.925Z,1022.56
2018-02-17T12:45:16.737Z,1022.54
2018-02-17T12:46:18.607Z,1022.52
2018-02-17T12:47:20.514Z,1022.48
2018-02-17T12:48:22.378Z,1022.48
2018-02-17T12:49:24.258Z,1022.42
2018-02-17T12:50:38.396Z,1022.42
2018-02-17T12:51:40.352Z,1022.41
2018-02-17T12:52:42.260Z,1022.39
2018-02-17T12:53:44.121Z,1022.44
2018-02-17T12:54:45.944Z,1022.41
2018-02-17T12:55:47.759Z,1022.38
2018-02-17T12:56:49.640Z,1022.37
2018-02-17T12:57:51.567Z,1022.33
2018-02-17T12:58:53.460Z,1022.27
2018-02-17T13:00:07.585Z,1022.26
2018-02-17T13:01:09.452Z,1022.24
2018-02-17T13:02:11.332Z,1022.25
2018-02-17T13:03:13.194Z,1022.24
2018-02-17T13:04:15.014Z,1022.24
2018-02-17T13:05:16.836Z,1022.24
2018-02-17T13:06:18.693Z,1022.21
2018-02-17T13:07:20.559Z,1022.21
2018-02-17T13:08:22.418Z,1022.20
2018-02-17T13:09:36.552Z,1022.21
2018-02-17T13:10:38.399Z,1022.19
2018-02-17T13:11:40.299Z,1022.21
2018-02-17T13:12:42.184Z,1022.17
2018-02-17T13:13:44.036Z,1022.16
2018-02-17T13:14:45.823Z,1022.13
2018-02-17T13:15:47.699Z,1022.11
2018-02-17T13:16:49.596Z,1022.11
2018-02-17T13:17:51.478Z,1022.12
2018-02-17T13:19:05.605Z,1022.06
2018-02-17T13:20:07.466Z,1022.07
2018-02-17T13:21:09.329Z,1022.04
2018-02-17T13:22:11.191Z,1022.06
2018-02-17T13:23:13.008Z,1022.02
2018-02-17T13:24:14.835Z,1022.00
2018-02-17T13:25:16.679Z,1021.99
2018-02-17T13:26:18.506Z,1021.98
2018-02-17T13:27:20.370Z,1022.00
2018-02-17T13:28:34.520Z,1022.03
2018-02-17T13:29:36.401Z,1021.98
2018-02-17T13:30:38.256Z,1021.95
2018-02-17T13:31:40.119Z,1021.98
2018-02-17T13:32:41.917Z,1021.95
2018-02-17T13:33:43.717Z,1021.93
2018-02-17T13:34:45.580Z,1021.94
2018-02-17T13:35:47.462Z,1021.97
2018-02-17T13:36:49.403Z,1021.94
2018-02-17T13:38:03.472Z,1021.96
2018-02-17T13:39:05.339Z,1021.95
2018-02-17T13:40:07.198Z,1021.96
2018-02-17T13:41:09.060Z,1021.90
2018-02-17T13:42:10.850Z,1021.92
2018-02-17T13:43:12.643Z,1021.96
2018-02-17T13:44:14.506Z,1021.97
2018-02-17T13:45:16.367Z,1021.95
2018-02-17T13:46:18.229Z,1021.97
2018-02-17T13:47:32.382Z,1021.97
2018-02-17T13:48:34.261Z,1021.96
2018-02-17T13:49:36.130Z,1021.98
2018-02-17T13:50:37.996Z,1021.94
2018-02-17T13:51:39.813Z,1021.95
2018-02-17T13:52:41.629Z,1021.91
2018-02-17T13:53:43.494Z,1021.94
2018-02-17T13:54:45.375Z,1021.92
2018-02-17T13:55:47.238Z,1021.96
2018-02-17T13:57:01.375Z,1021.99
2018-02-17T13:58:03.251Z,1021.97
2018-02-17T13:59:05.108Z,1021.91
2018-02-17T14:00:06.978Z,1021.90
2018-02-17T14:01:08.769Z,1021.90
2018-02-17T14:02:10.563Z,1021.94
2018-02-17T14:03:12.430Z,1021.94
2018-02-17T14:04:14.324Z,1021.94
2018-02-17T14:05:16.155Z,1021.95
2018-02-17T14:06:30.291Z,1021.97
2018-02-17T14:07:32.152Z,1021.95
2018-02-17T14:08:34.033Z,1021.95
2018-02-17T14:09:35.874Z,1021.96
2018-02-17T14:10:37.723Z,1021.93
2018-02-17T14:11:39.506Z,1021.95
2018-02-17T14:12:41.357Z,1021.96
2018-02-17T14:13:43.241Z,1021.97
2018-02-17T14:14:45.126Z,1022.04
2018-02-17T14:15:59.273Z,1021.98
2018-02-17T14:17:01.132Z,1021.97
2018-02-17T14:18:02.988Z,1022.01
2018-02-17T14:19:04.850Z,1022.04
2018-02-17T14:20:06.644Z,1021.99
2018-02-17T14:21:08.447Z,1021.96
2018-02-17T14:22:10.317Z,1021.98
2018-02-17T14:23:12.181Z,1021.93
2018-02-17T14:24:14.047Z,1021.95
2018-02-17T14:25:28.176Z,1021.99
2018-02-17T14:26:30.061Z,1021.94
2018-02-17T14:27:31.916Z,1021.95
2018-02-17T14:28:33.780Z,1021.95
2018-02-17T14:29:35.578Z,1021.93
2018-02-17T14:30:37.389Z,1021.93
2018-02-17T14:31:39.254Z,1021.87
2018-02-17T14:32:41.110Z,1021.90
2018-02-17T14:33:42.973Z,1021.86
2018-02-17T14:34:57.116Z,1021.87
2018-02-17T14:35:58.979Z,1021.91
2018-02-17T14:37:00.840Z,1021.88
2018-02-17T14:38:02.716Z,1021.88
2018-02-17T14:39:04.512Z,1021.83
2018-02-17T14:40:06.326Z,1021.85
2018-02-17T14:41:08.186Z,1021.82
2018-02-17T14:42:10.062Z,1021.81
2018-02-17T14:43:11.921Z,1021.78
2018-02-17T14:44:26.056Z,1021.76
2018-02-17T14:45:27.915Z,1021.77
2018-02-17T14:46:29.793Z,1021.81
2018-02-17T14:47:31.653Z,1021.81
2018-02-17T14:48:33.450Z,1021.77
2018-02-17T14:49:35.245Z,1021.78
2018-02-17T14:50:37.125Z,1021.75
2018-02-17T14:51:38.982Z,1021.69
2018-02-17T14:52:40.840Z,1021.67
2018-02-17T14:53:54.966Z,1021.66
2018-02-17T14:54:56.831Z,1021.65
2018-02-17T14:55:58.692Z,1021.66
2018-02-17T14:57:00.572Z,1021.64
2018-02-17T14:58:02.371Z,1021.65
2018-02-17T14:59:04.184Z,1021.59
2018-02-17T15:00:06.041Z,1021.61
2018-02-17T15:01:07.940Z,1021.57
2018-02-17T15:02:09.767Z,1021.58
2018-02-17T15:03:23.940Z,1021.55
2018-02-17T15:04:25.780Z,1021.59
2018-02-17T15:05:27.647Z,1021.57
2018-02-17T15:06:29.580Z,1021.57
2018-02-17T15:07:31.334Z,1021.56
2018-02-17T15:08:33.146Z,1021.58
2018-02-17T15:09:35.007Z,1021.54
2018-02-17T15:10:36.872Z,1021.56
2018-02-17T15:11:38.739Z,1021.50
2018-02-17T15:12:52.866Z,1021.53
2018-02-17T15:13:54.747Z,1021.51
2018-02-17T15:14:56.624Z,1021.49
2018-02-17T15:15:58.487Z,1021.52
2018-02-17T15:17:00.283Z,1021.48
2018-02-17T15:18:02.099Z,1021.52
2018-02-17T15:19:03.971Z,1021.47
2018-02-17T15:20:05.835Z,1021.46
2018-02-17T15:21:07.713Z,1021.46
2018-02-17T15:22:21.913Z,1021.47
2018-02-17T15:23:23.765Z,1021.51
2018-02-17T15:24:25.711Z,1021.45
2018-02-17T15:25:27.639Z,1021.48
2018-02-17T15:26:29.436Z,1021.47
2018-02-17T15:27:31.245Z,1021.46
2018-02-17T15:28:33.106Z,1021.51
2018-02-17T15:29:34.967Z,1021.44
2018-02-17T15:30:36.827Z,1021.44
2018-02-17T15:31:50.972Z,1021.45
2018-02-17T15:32:52.848Z,1021.45
2018-02-17T15:33:54.708Z,1021.51
2018-02-17T15:34:56.566Z,1021.51
2018-02-17T15:35:58.358Z,1021.49
2018-02-17T15:37:00.154Z,1021.48
2018-02-17T15:38:02.009Z,1021.50
2018-02-17T15:39:03.868Z,1021.50
2018-02-17T15:40:05.724Z,1021.51
2018-02-17T15:41:19.859Z,1021.56
2018-02-17T15:42:21.733Z,1021.50
2018-02-17T15:43:23.592Z,1021.50
2018-02-17T15:44:25.444Z,1021.48
2018-02-17T15:45:27.244Z,1021.46
2018-02-17T15:46:29.054Z,1021.45
2018-02-17T15:47:30.916Z,1021.45
2018-02-17T15:48:32.791Z,1021.44
2018-02-17T15:49:34.648Z,1021.43
2018-02-17T15:50:48.788Z,1021.45
2018-02-17T15:51:50.655Z,1021.47
2018-02-17T15:52:52.510Z,1021.48
2018-02-17T15:53:54.384Z,1021.47
2018-02-17T15:54:56.178Z,1021.48
2018-02-17T15:55:57.970Z,1021.51
2018-02-17T15:56:59.827Z,1021.53
2018-02-17T15:58:01.694Z,1021.53
2018-02-17T15:59:03.566Z,1021.54
2018-02-17T16:00:17.692Z,1021.58
2018-02-17T16:01:19.553Z,1021.53
2018-02-17T16:02:21.411Z,1021.58
2018-02-17T16:03:23.272Z,1021.51
2018-02-17T16:04:25.080Z,1021.49
2018-02-17T16:05:26.879Z,1021.52
2018-02-17T16:06:28.758Z,1021.51
2018-02-17T16:07:30.614Z,1021.52
2018-02-17T16:08:32.471Z,1021.55
2018-02-17T16:09:46.594Z,1021.59
2018-02-17T16:10:48.459Z,1021.58
2018-02-17T16:11:50.335Z,1021.57
2018-02-17T16:12:52.191Z,1021.58
2018-02-17T16:13:54.003Z,1021.57
2018-02-17T16:14:55.794Z,1021.51
2018-02-17T16:15:57.654Z,1021.53
2018-02-17T16:16:59.516Z,1021.52
2018-02-17T16:18:01.398Z,1021.49
2018-02-17T16:19:15.537Z,1021.50
2018-02-17T16:20:17.400Z,1021.48
2018-02-17T16:21:19.277Z,1021.50
2018-02-17T16:22:21.124Z,1021.54
2018-02-17T16:23:22.910Z,1021.54
2018-02-17T16:24:24.709Z,1021.61
2018-02-17T16:25:26.561Z,1021.58
2018-02-17T16:26:28.417Z,1021.59
2018-02-17T16:27:30.286Z,1021.56
2018-02-17T16:28:44.407Z,1021.63
2018-02-17T16:29:46.267Z,1021.54
2018-02-17T16:30:48.125Z,1021.62
2018-02-17T16:31:49.986Z,1021.59
2018-02-17T16:32:51.774Z,1021.64
2018-02-17T16:33:53.570Z,1021.65
2018-02-17T16:34:55.442Z,1021.65
2018-02-17T16:35:57.302Z,1021.68
2018-02-17T16:36:59.152Z,1021.60
2018-02-17T16:38:13.284Z,1021.66
2018-02-17T16:39:15.144Z,1021.69
2018-02-17T16:40:17.018Z,1021.70
2018-02-17T16:41:18.895Z,1021.73
2018-02-17T16:42:20.687Z,1021.72
2018-02-17T16:43:22.476Z,1021.71
2018-02-17T16:44:24.351Z,1021.72
2018-02-17T16:45:26.261Z,1021.71
2018-02-17T16:46:28.171Z,1021.72
2018-02-17T16:47:42.299Z,1021.73
2018-02-17T16:48:44.158Z,1021.73
2018-02-17T16:49:46.015Z,1021.79
2018-02-17T16:50:47.888Z,1021.84
2018-02-17T16:51:49.680Z,1021.89
2018-02-17T16:52:51.569Z,1021.83
2018-02-17T16:53:56.620Z,1021.89
2018-02-17T16:54:58.513Z,1021.92
2018-02-17T16:56:00.404Z,1021.91
2018-02-17T16:57:14.560Z,1021.89
2018-02-17T16:58:16.423Z,1021.95
2018-02-17T16:59:18.333Z,1021.94
2018-02-17T17:00:20.312Z,1021.98
2018-02-17T17:01:22.059Z,1022.00
2018-02-17T17:02:23.852Z,1022.05
2018-02-17T17:03:25.728Z,1022.06
2018-02-17T17:04:27.650Z,1022.09
2018-02-17T17:05:29.451Z,1022.07
2018-02-17T17:06:43.574Z,1022.13
2018-02-17T17:07:45.429Z,1022.11
2018-02-17T17:08:47.289Z,1022.14
2018-02-17T17:09:49.164Z,1022.14
2018-02-17T17:10:50.972Z,1022.16
2018-02-17T17:11:52.781Z,1022.19
2018-02-17T17:12:54.629Z,1022.18
2018-02-17T17:13:56.488Z,1022.19
2018-02-17T17:14:58.361Z,1022.21
2018-02-17T17:16:12.482Z,1022.24
2018-02-17T17:17:14.347Z,1022.25
2018-02-17T17:18:16.198Z,1022.27
2018-02-17T17:19:18.053Z,1022.24
2018-02-17T17:20:19.844Z,1022.24
2018-02-17T17:21:21.639Z,1022.23
2018-02-17T17:22:23.488Z,1022.24
2018-02-17T17:23:25.339Z,1022.23
2018-02-17T17:24:27.195Z,1022.25
2018-02-17T17:25:41.333Z,1022.27
2018-02-17T17:26:43.190Z,1022.27
2018-02-17T17:27:45.045Z,1022.29
2018-02-17T17:28:46.940Z,1022.30
2018-02-17T17:29:48.749Z,1022.29
2018-02-17T17:30:50.543Z,1022.28
2018-02-17T17:31:52.417Z,1022.32
2018-02-17T17:32:54.292Z,1022.30
2018-02-17T17:33:56.146Z,1022.31
2018-02-17T17:35:10.415Z,1022.29
2018-02-17T17:36:12.264Z,1022.29
2018-02-17T17:37:14.146Z,1022.32
2018-02-17T17:38:16.019Z,1022.35
2018-02-17T17:39:17.822Z,1022.28
2018-02-17T17:40:19.616Z,1022.27
2018-02-17T17:41:21.493Z,1022.29
2018-02-17T17:42:23.362Z,1022.28
2018-02-17T17:43:25.221Z,1022.23
2018-02-17T17:44:39.360Z,1022.25
2018-02-17T17:45:41.221Z,1022.20
2018-02-17T17:46:43.090Z,1022.21
2018-02-17T17:47:44.998Z,1022.20
2018-02-17T17:48:46.798Z,1022.19
2018-02-17T17:49:48.588Z,1022.19
2018-02-17T17:50:50.490Z,1022.19
2018-02-17T17:51:52.308Z,1022.19
2018-02-17T17:52:54.162Z,1022.23
2018-02-17T17:54:08.287Z,1022.21
2018-02-17T17:55:10.143Z,1022.15
2018-02-17T17:56:11.994Z,1022.19
2018-02-17T17:57:13.846Z,1022.20
2018-02-17T17:58:15.638Z,1022.15
2018-02-17T17:59:17.425Z,1022.17
2018-02-17T18:00:19.282Z,1022.16
2018-02-17T18:01:21.157Z,1022.17
2018-02-17T18:02:23.027Z,1022.18
2018-02-17T18:03:37.196Z,1022.16
2018-02-17T18:04:39.054Z,1022.21
2018-02-17T18:05:40.928Z,1022.18
2018-02-17T18:06:42.805Z,1022.21
2018-02-17T18:07:44.616Z,1022.22
2018-02-17T18:08:46.433Z,1022.25
2018-02-17T18:09:48.302Z,1022.27
2018-02-17T18:10:50.152Z,1022.26
2018-02-17T18:11:52.004Z,1022.27
2018-02-17T18:13:06.172Z,1022.27
2018-02-17T18:14:08.027Z,1022.33
2018-02-17T18:15:09.887Z,1022.30
2018-02-17T18:16:11.753Z,1022.30
2018-02-17T18:17:13.541Z,1022.31
2018-02-17T18:18:15.336Z,1022.34
2018-02-17T18:19:17.184Z,1022.35
2018-02-17T18:20:19.045Z,1022.38
2018-02-17T18:21:20.921Z,1022.36
2018-02-17T18:22:35.038Z,1022.37
2018-02-17T18:23:36.899Z,1022.33
2018-02-17T18:24:38.763Z,1022.33
2018-02-17T18:25:40.614Z,1022.35
2018-02-17T18:26:42.404Z,1022.33
2018-02-17T18:27:44.221Z,1022.35
2018-02-17T18:28:46.096Z,1022.33
2018-02-17T18:29:47.972Z,1022.37
2018-02-17T18:30:49.847Z,1022.35
2018-02-17T18:32:04.018Z,1022.39
2018-02-17T18:33:05.895Z,1022.38
2018-02-17T18:34:07.766Z,1022.39
2018-02-17T18:35:09.625Z,1022.40
2018-02-17T18:36:11.429Z,1022.38
2018-02-17T18:37:13.223Z,1022.39
2018-02-17T18:38:15.075Z,1022.43
2018-02-17T18:39:16.947Z,1022.41
2018-02-17T18:40:18.825Z,1022.42
2018-02-17T18:41:32.948Z,1022.38
2018-02-17T18:42:34.818Z,1022.38
2018-02-17T18:43:36.669Z,1022.39
2018-02-17T18:44:38.523Z,1022.35
2018-02-17T18:45:40.336Z,1022.35
2018-02-17T18:46:42.151Z,1022.36
2018-02-17T18:47:44.021Z,1022.39
2018-02-17T18:48:45.875Z,1022.36
2018-02-17T18:49:47.726Z,1022.42
2018-02-17T18:51:01.844Z,1022.37
2018-02-17T18:52:03.705Z,1022.40
2018-02-17T18:53:05.574Z,1022.41
2018-02-17T18:54:07.429Z,1022.38
2018-02-17T18:55:09.234Z,1022.38
2018-02-17T18:56:11.029Z,1022.38
2018-02-17T18:57:12.879Z,1022.37
2018-02-17T18:58:14.756Z,1022.35
2018-02-17T18:59:16.634Z,1022.36
2018-02-17T19:00:30.774Z,1022.35
2018-02-17T19:01:32.626Z,1022.35
2018-02-17T19:02:34.483Z,1022.35
2018-02-17T19:03:36.334Z,1022.29
2018-02-17T19:04:38.124Z,1022.30
2018-02-17T19:05:39.918Z,1022.38
2018-02-17T19:06:41.788Z,1022.38
2018-02-17T19:07:43.645Z,1022.37
2018-02-17T19:08:45.498Z,1022.32
2018-02-17T19:09:59.624Z,1022.34
2018-02-17T19:11:01.481Z,1022.38
2018-02-17T19:12:03.332Z,1022.36
2018-02-17T19:13:05.191Z,1022.34
2018-02-17T19:14:06.978Z,1022.35
2018-02-17T19:15:08.797Z,1022.30
2018-02-17T19:16:10.654Z,1022.28
2018-02-17T19:17:12.519Z,1022.28
2018-02-17T19:18:14.381Z,1022.24
2018-02-17T19:19:28.502Z,1022.26
2018-02-17T19:20:30.360Z,1022.31
2018-02-17T19:21:32.229Z,1022.27
2018-02-17T19:22:34.086Z,1022.31
2018-02-17T19:23:35.890Z,1022.31
2018-02-17T19:24:37.685Z,1022.33
2018-02-17T19:25:39.562Z,1022.31
2018-02-17T19:26:41.435Z,1022.31
2018-02-17T19:27:43.290Z,1022.33
2018-02-17T19:28:57.424Z,1022.35
2018-02-17T19:29:59.286Z,1022.36
2018-02-17T19:31:01.234Z,1022.37
2018-02-17T19:32:03.009Z,1022.39
2018-02-17T19:33:04.801Z,1022.39
2018-02-17T19:34:06.597Z,1022.41
2018-02-17T19:35:08.472Z,1022.43
2018-02-17T19:36:10.345Z,1022.47
2018-02-17T19:37:12.197Z,1022.45
2018-02-17T19:38:26.391Z,1022.44
2018-02-17T19:39:28.241Z,1022.41
2018-02-17T19:40:30.103Z,1022.45
2018-02-17T19:41:31.953Z,1022.39
2018-02-17T19:42:33.747Z,1022.42
2018-02-17T19:43:35.539Z,1022.42
2018-02-17T19:44:37.410Z,1022.41
2018-02-17T19:45:39.261Z,1022.45
2018-02-17T19:46:41.116Z,1022.44
2018-02-17T19:47:55.282Z,1022.49
2018-02-17T19:48:57.135Z,1022.46
2018-02-17T19:49:58.992Z,1022.51
2018-02-17T19:51:00.850Z,1022.49
2018-02-17T19:52:02.641Z,1022.51
2018-02-17T19:53:04.449Z,1022.55
2018-02-17T19:54:06.304Z,1022.53
2018-02-17T19:55:08.175Z,1022.55
2018-02-17T19:56:10.049Z,1022.56
2018-02-17T19:57:24.240Z,1022.57
2018-02-17T19:58:26.129Z,1022.60
2018-02-17T19:59:27.955Z,1022.63
2018-02-17T20:00:29.804Z,1022.65
2018-02-17T20:01:31.591Z,1022.66
2018-02-17T20:02:33.390Z,1022.72
2018-02-17T20:03:35.259Z,1022.73
2018-02-17T20:04:37.115Z,1022.76
2018-02-17T20:05:38.988Z,1022.75
2018-02-17T20:06:53.127Z,1022.80
2018-02-17T20:07:54.990Z,1022.78
2018-02-17T20:08:56.837Z,1022.84
2018-02-17T20:09:58.697Z,1022.83
2018-02-17T20:11:00.506Z,1022.86
2018-02-17T20:12:02.295Z,1022.84
2018-02-17T20:13:04.150Z,1022.86
2018-02-17T20:14:06.024Z,1022.86
2018-02-17T20:15:07.878Z,1022.88
2018-02-17T20:16:22.017Z,1022.83
2018-02-17T20:17:23.873Z,1022.83
2018-02-17T20:18:25.734Z,1022.78
2018-02-17T20:19:27.601Z,1022.81
2018-02-17T20:20:29.409Z,1022.76
2018-02-17T20:21:31.197Z,1022.77
2018-02-17T20:22:33.050Z,1022.79
